Time;durP1;ratioP1;P1;durP2;ratioP2;P2;SDS_P1;SDS_P2;PMS_P1;PMS_P2;Temp;Humidity;BMP_temperature;BMP_pressure;BME280_temperature;BME280_humidity;BME280_pressure;Samples;Min_cycle;Max_cycle;Signal;HPM_P1;HPM_P2
2021/11/14 00:00:28;;;;;;;;;;;;;;;5.34;90.74;99455.53;4972489;28;20017;-84
2021/11/14 00:02:54;;;;;;;;;;;;;;;5.36;90.90;99455.47;4970732;28;19918;-84
2021/11/14 00:05:20;;;;;;;;;;;;;;;5.35;90.92;99456.41;4970406;28;19924;-83
2021/11/14 00:07:45;;;;;;;;;;;;;;;5.36;91.21;99456.38;4972276;28;20137;-84
2021/11/14 00:10:10;;;;;;;;;;;;;;;5.38;91.34;99451.06;4972258;28;19928;-83
2021/11/14 00:12:37;;;;;;;;;;;;;;;5.40;91.60;99450.09;4954899;28;20009;-83
2021/11/14 00:15:03;;;;;;;;;;;;;;;5.42;91.45;99452.69;4972274;28;20388;-82
2021/11/14 00:17:29;;;;;;;;;;;;;;;5.44;91.58;99448.25;4972535;28;19929;-84
2021/11/14 00:19:54;;;;;;;;;;;;;;;5.49;91.70;99454.25;4975985;28;19922;-83
2021/11/14 00:22:19;;;;;;;;;;;;;;;5.51;92.07;99451.59;4975667;28;19922;-83
2021/11/14 00:24:44;;;;;;;;;;;;;;;5.54;91.97;99449.72;4975785;28;19926;-83
2021/11/14 00:27:10;;;;;;;;;;;;;;;5.53;92.00;99450.63;4975650;28;19918;-83
2021/11/14 00:29:35;;;;;;;;;;;;;;;5.54;92.16;99448.88;4975488;28;19922;-83
2021/11/14 00:32:01;;;;;;;;;;;;;;;5.56;92.44;99445.28;4975408;28;19944;-83
2021/11/14 00:34:26;;;;;;;;;;;;;;;5.58;92.53;99448.72;4974317;28;19922;-82
2021/11/14 00:36:53;;;;;;;;;;;;;;;5.58;92.48;99440.84;4957414;28;19918;-82
2021/11/14 00:39:19;;;;;;;;;;;;;;;5.59;92.49;99458.34;4975065;28;19922;-84
2021/11/14 00:41:45;;;;;;;;;;;;;;;5.66;92.77;99448.53;4975271;28;19925;-83
2021/11/14 00:44:11;;;;;;;;;;;;;;;5.66;92.67;99445.03;4957282;28;19930;-83
2021/11/14 00:46:37;;;;;;;;;;;;;;;5.66;92.86;99445.03;4975213;28;19956;-83
2021/11/14 00:49:03;;;;;;;;;;;;;;;5.69;92.98;99444.94;4973779;28;19918;-82
2021/11/14 00:51:29;;;;;;;;;;;;;;;5.74;92.94;99437.78;4975304;28;19968;-83
2021/11/14 00:53:58;;;;;;;;;;;;;;;5.82;93.39;99447.19;4975248;28;19918;-84
2021/11/14 00:56:24;;;;;;;;;;;;;;;5.89;93.73;99442.63;4975085;28;19930;-83
2021/11/14 00:58:49;;;;;;;;;;;;;;;5.93;94.06;99446.88;4974895;28;19926;-83
2021/11/14 01:01:15;;;;;;;;;;;;;;;5.99;94.51;99449.34;4957355;28;19925;-83
2021/11/14 01:03:40;;;;;;;;;;;;;;;5.99;94.83;99446.72;4973564;28;19945;-83
2021/11/14 01:06:06;;;;;;;;;;;;;;;5.98;95.20;99447.66;4974636;28;20388;-83
2021/11/14 01:08:31;;;;;;;;;;;;;;;6.00;95.45;99456.34;4957178;28;20049;-82
2021/11/14 01:10:58;;;;;;;;;;;;;;;6.04;95.21;99456.25;4974429;28;19918;-82
2021/11/14 01:13:23;;;;;;;;;;;;;;;5.98;94.84;99458.16;4973890;28;19939;-82
2021/11/14 01:15:49;;;;;;;;;;;;;;;5.87;93.91;99452.34;4974310;28;20069;-82
2021/11/14 01:18:16;;;;;;;;;;;;;;;5.75;92.68;99450.03;4973359;28;19924;-83
2021/11/14 01:20:43;;;;;;;;;;;;;;;5.50;91.77;99452.50;4974286;28;19976;-83
2021/11/14 01:23:10;;;;;;;;;;;;;;;5.39;91.68;99452.78;4974371;28;20227;-84
2021/11/14 01:25:35;;;;;;;;;;;;;;;5.31;92.15;99457.38;4974172;28;19972;-83
2021/11/14 01:28:02;;;;;;;;;;;;;;;5.27;93.01;99461.84;4973075;28;19957;-85
2021/11/14 01:30:29;;;;;;;;;;;;;;;5.25;95.26;99456.63;4973239;28;19922;-83
2021/11/14 01:32:55;;;;;;;;;;;;;;;5.28;97.63;99456.56;4969906;28;20282;-82
2021/11/14 01:35:21;;;;;;;;;;;;;;;5.33;100.00;99460.81;4956688;28;19922;-82
2021/11/14 01:37:49;;;;;;;;;;;;;;;5.43;100.00;99460.53;4974367;28;19925;-84
2021/11/14 01:40:18;;;;;;;;;;;;;;;5.66;100.00;99466.91;4974120;28;19926;-83
2021/11/14 01:42:44;;;;;;;;;;;;;;;5.80;100.00;99466.53;4974406;28;19965;-82
2021/11/14 01:45:10;;;;;;;;;;;;;;;5.93;100.00;99467.91;4973131;28;19926;-84
2021/11/14 01:47:35;;;;;;;;;;;;;;;6.03;100.00;99463.28;4972394;28;19926;-81
2021/11/14 01:50:00;;;;;;;;;;;;;;;6.11;100.00;99470.94;4973915;28;20374;-82
2021/11/14 01:52:27;;;;;;;;;;;;;;;6.14;100.00;99462.97;4973477;28;19922;-82
2021/11/14 01:54:53;;;;;;;;;;;;;;;6.21;100.00;99463.63;4974097;28;19922;-82
2021/11/14 01:57:19;;;;;;;;;;;;;;;6.26;100.00;99464.38;4974189;28;19929;-83
2021/11/14 01:59:44;;;;;;;;;;;;;;;6.27;100.00;99466.06;4973982;28;20388;-83
2021/11/14 02:02:11;;;;;;;;;;;;;;;6.30;100.00;99458.97;4973639;28;19922;-83
2021/11/14 02:04:37;;;;;;;;;;;;;;;6.33;100.00;99464.16;4955345;28;19929;-83
2021/11/14 02:07:02;;;;;;;;;;;;;;;6.36;100.00;99466.66;4973318;28;19922;-83
2021/11/14 02:09:28;;;;;;;;;;;;;;;6.40;100.00;99459.56;4973487;28;19928;-83
2021/11/14 02:11:53;;;;;;;;;;;;;;;6.41;100.00;99460.41;4956626;28;20013;-83
2021/11/14 02:14:18;;;;;;;;;;;;;;;6.45;100.00;99451.50;4973662;28;19930;-82
2021/11/14 02:16:44;;;;;;;;;;;;;;;6.50;100.00;99462.75;4973543;28;19926;-83
2021/11/14 02:19:09;;;;;;;;;;;;;;;6.54;100.00;99457.34;4972422;28;20425;-83
2021/11/14 02:21:35;;;;;;;;;;;;;;;6.58;100.00;99462.53;4973337;28;20469;-82
2021/11/14 02:24:01;;;;;;;;;;;;;;;6.56;100.00;99459.94;4973051;28;19922;-84
2021/11/14 02:26:26;;;;;;;;;;;;;;;6.60;100.00;99461.53;4973622;28;20338;-83
2021/11/14 02:28:52;;;;;;;;;;;;;;;6.62;100.00;99459.75;4973432;28;19953;-82
2021/11/14 02:31:18;;;;;;;;;;;;;;;6.65;100.00;99466.66;4973436;28;19923;-84
2021/11/14 02:33:43;;;;;;;;;;;;;;;6.69;100.00;99461.25;4972511;28;19918;-83
2021/11/14 02:36:10;;;;;;;;;;;;;;;6.70;100.00;99468.25;4973186;28;20417;-83
2021/11/14 02:38:36;;;;;;;;;;;;;;;6.73;100.00;99467.28;4973193;28;20386;-83
2021/11/14 02:41:02;;;;;;;;;;;;;;;6.73;100.00;99457.63;4972891;28;19918;-84
2021/11/14 02:43:27;;;;;;;;;;;;;;;6.78;100.00;99464.50;4973308;28;20050;-84
2021/11/14 02:45:53;;;;;;;;;;;;;;;6.79;100.00;99461.81;4973549;28;19922;-83
2021/11/14 02:48:18;;;;;;;;;;;;;;;6.82;100.00;99464.34;4971130;28;19922;-83
2021/11/14 02:50:45;;;;;;;;;;;;;;;6.86;100.00;99465.09;4973334;28;19918;-83
2021/11/14 02:53:11;;;;;;;;;;;;;;;6.94;100.00;99459.59;4973298;28;19918;-83
2021/11/14 02:55:37;;;;;;;;;;;;;;;6.92;100.00;99462.28;4973444;28;19976;-84
2021/11/14 02:58:03;;;;;;;;;;;;;;;6.95;100.00;99467.44;4972832;28;19922;-84
2021/11/14 03:00:30;;;;;;;;;;;;;;;6.98;100.00;99461.22;4973089;28;19926;-83
2021/11/14 03:02:56;;;;;;;;;;;;;;;7.02;100.00;99458.44;4971351;28;19918;-84
2021/11/14 03:05:21;;;;;;;;;;;;;;;7.03;100.00;99459.28;4972371;28;20005;-83
2021/11/14 03:07:48;;;;;;;;;;;;;;;7.02;100.00;99453.16;4973162;28;20818;-83
2021/11/14 03:10:14;;;;;;;;;;;;;;;7.07;100.00;99460.91;4972882;28;19922;-83
2021/11/14 03:12:40;;;;;;;;;;;;;;;7.06;100.00;99460.03;4955737;28;19929;-85
2021/11/14 03:15:06;;;;;;;;;;;;;;;7.11;100.00;99459.03;4972894;28;20277;-84
2021/11/14 03:17:31;;;;;;;;;;;;;;;7.15;100.00;99463.28;4971796;28;19922;-83
2021/11/14 03:19:57;;;;;;;;;;;;;;;7.15;100.00;99463.28;4971019;28;20341;-83
2021/11/14 03:22:22;;;;;;;;;;;;;;;7.16;100.00;99467.63;4972881;28;19973;-83
2021/11/14 04:20:05;;;;;;;;;;;;;;;2.88;98.42;99516.66;4962944;28;19940;-84
2021/11/14 04:22:30;;;;;;;;;;;;;;;2.75;98.03;99528.22;4959293;28;19922;-84
2021/11/14 04:24:55;;;;;;;;;;;;;;;2.69;97.89;99530.03;4976835;28;20137;-84
2021/11/14 04:27:21;;;;;;;;;;;;;;;2.63;97.73;99522.28;4976269;28;20402;-84
2021/11/14 04:29:46;;;;;;;;;;;;;;;2.51;97.09;99525.94;4976095;28;20017;-84
2021/11/14 04:32:11;;;;;;;;;;;;;;;2.42;97.10;99523.44;4975172;28;20005;-84
2021/11/14 04:34:37;;;;;;;;;;;;;;;2.33;96.56;99534.91;4974639;28;19925;-84
2021/11/14 04:37:02;;;;;;;;;;;;;;;2.22;96.97;99539.41;4975908;28;19980;-84
2021/11/14 04:39:27;;;;;;;;;;;;;;;2.17;97.45;99541.19;4975802;28;19927;-83
2021/11/14 04:41:53;;;;;;;;;;;;;;;2.09;97.31;99543.03;4958607;28;19925;-84
2021/11/14 04:44:18;;;;;;;;;;;;;;;2.06;97.08;99543.97;4975797;28;19918;-84
2021/11/14 04:46:44;;;;;;;;;;;;;;;1.99;97.12;99548.41;4975855;28;19922;-87
2021/11/14 04:49:09;;;;;;;;;;;;;;;1.91;96.72;99550.22;4974254;28;20412;-86
2021/11/14 04:51:34;;;;;;;;;;;;;;;1.86;96.18;99551.16;4975836;28;19929;-84
2021/11/14 04:53:59;;;;;;;;;;;;;;;1.72;95.61;99548.69;4975395;28;20293;-85
2021/11/14 04:56:25;;;;;;;;;;;;;;;1.71;94.88;99558.28;4975547;28;19922;-86
2021/11/14 04:58:50;;;;;;;;;;;;;;;1.57;94.24;99558.41;4975656;28;19918;-85
2021/11/14 05:01:16;;;;;;;;;;;;;;;1.57;93.90;99563.66;4958164;28;20013;-86
2021/11/14 05:03:41;;;;;;;;;;;;;;;1.47;94.04;99559.41;4956803;28;19957;-85
2021/11/14 05:06:09;;;;;;;;;;;;;;;1.44;93.64;99564.66;4975357;28;19929;-85
2021/11/14 05:08:35;;;;;;;;;;;;;;;1.22;92.99;99563.97;4975329;28;19914;-86
2021/11/14 05:11:00;;;;;;;;;;;;;;;1.20;92.69;99566.59;4975250;28;19925;-86
2021/11/14 05:13:26;;;;;;;;;;;;;;;1.21;92.34;99568.34;4975307;28;19925;-86
2021/11/14 05:15:51;;;;;;;;;;;;;;;1.24;92.51;99572.66;4975066;28;19926;-86
2021/11/14 05:18:17;;;;;;;;;;;;;;;1.07;91.59;99571.03;4974154;28;20012;-85
2021/11/14 05:20:43;;;;;;;;;;;;;;;1.30;94.46;99572.59;4974977;28;19929;-85
2021/11/14 05:23:08;;;;;;;;;;;;;;;1.90;100.00;99574.63;4974813;28;19926;-86
2021/11/14 05:25:34;;;;;;;;;;;;;;;2.21;100.00;99576.03;4975043;28;19911;-85
2021/11/14 05:28:00;;;;;;;;;;;;;;;2.63;100.00;99578.97;4957673;28;19918;-84
2021/11/14 05:30:25;;;;;;;;;;;;;;;2.96;100.00;99579.38;4975013;28;19919;-84
2021/11/14 05:32:50;;;;;;;;;;;;;;;3.04;100.00;99575.72;4973590;28;19922;-85
2021/11/14 05:35:15;;;;;;;;;;;;;;;3.12;100.00;99585.25;4974744;28;19925;-84
2021/11/14 05:37:41;;;;;;;;;;;;;;;3.18;100.00;99585.16;4974882;28;20354;-84
2021/11/14 05:40:07;;;;;;;;;;;;;;;3.17;100.00;99583.41;4974654;28;20324;-84
2021/11/14 05:42:32;;;;;;;;;;;;;;;3.11;100.00;99588.72;4974691;28;19925;-84
2021/11/14 05:44:58;;;;;;;;;;;;;;;3.16;100.00;99597.38;4974666;28;20493;-84
2021/11/14 05:47:24;;;;;;;;;;;;;;;3.17;100.00;99593.88;4974577;28;19958;-84
2021/11/14 05:49:49;;;;;;;;;;;;;;;3.18;100.00;99588.63;4973209;28;19922;-84
2021/11/14 05:52:14;;;;;;;;;;;;;;;3.16;100.00;99597.38;4974457;28;20004;-84
2021/11/14 05:54:39;;;;;;;;;;;;;;;3.24;100.00;99600.75;4974466;28;19918;-84
2021/11/14 05:57:05;;;;;;;;;;;;;;;3.17;100.00;99599.97;4974397;28;19918;-84
2021/11/14 06:02:00;;;;;;;;;;;;;;;3.01;100.00;99611.56;4974403;28;19926;-84
2021/11/14 06:07:25;;;;;;;;;;;;;;;3.06;100.00;99614.97;4951581;28;20000;-84
2021/11/14 06:09:50;;;;;;;;;;;;;;;3.00;100.00;99617.69;4973649;28;20022;-84
2021/11/14 06:12:15;;;;;;;;;;;;;;;2.99;100.00;99614.22;4974212;28;19949;-84
2021/11/14 06:14:41;;;;;;;;;;;;;;;2.94;100.00;99616.03;4973651;28;19929;-84
2021/11/14 06:17:06;;;;;;;;;;;;;;;3.05;100.00;99621.97;4972729;28;19918;-84
2021/11/14 06:19:31;;;;;;;;;;;;;;;3.07;100.00;99624.56;4972566;28;20371;-84
2021/11/14 06:21:56;;;;;;;;;;;;;;;3.02;100.00;99627.25;4974102;28;19921;-85
2021/11/14 13:58:51;;;;;;;;;;;;;;;6.87;100.00;99925.13;4934853;29;19929;-84
2021/11/14 14:01:26;;;;;;;;;;;;;;;6.90;100.00;99927.69;4934777;29;19962;-86
2021/11/14 14:03:53;;;;;;;;;;;;;;;6.92;100.00;99931.16;4913121;29;19926;-86
2021/11/14 14:06:19;;;;;;;;;;;;;;;6.96;100.00;99926.69;4918472;29;20021;-87
2021/11/14 14:08:45;;;;;;;;;;;;;;;6.98;100.00;99931.00;4934038;29;20062;-86
2021/11/14 14:11:10;;;;;;;;;;;;;;;6.98;100.00;99935.41;4934510;29;19919;-87
2021/11/14 14:13:37;;;;;;;;;;;;;;;7.01;100.00;99941.44;4935633;29;19927;-87
2021/11/14 14:16:05;;;;;;;;;;;;;;;7.04;100.00;99945.78;4935700;29;19931;-86
2021/11/14 14:18:35;;;;;;;;;;;;;;;7.07;100.00;99954.47;4918623;29;19923;-87
2021/11/14 14:21:04;;;;;;;;;;;;;;;7.10;100.00;99956.19;4918511;29;19923;-86
2021/11/14 14:23:30;;;;;;;;;;;;;;;7.12;100.00;99958.78;4935092;29;20703;-87
2021/11/14 14:25:55;;;;;;;;;;;;;;;7.03;100.00;99960.72;4933556;29;19919;-87
2021/11/14 14:28:26;;;;;;;;;;;;;;;5.37;100.00;99969.59;4935440;29;19926;-86
2021/11/14 14:30:56;;;;;;;;;;;;;;;4.52;100.00;99971.88;4934686;29;20014;-86
2021/11/14 14:33:22;;;;;;;;;;;;;;;3.94;100.00;99959.59;4918159;29;19926;-86
2021/11/14 14:35:52;;;;;;;;;;;;;;;3.77;100.00;99965.91;4934942;29;20294;-86
2021/11/14 14:38:23;;;;;;;;;;;;;;;3.54;100.00;99970.56;4933304;29;19919;-87
2021/11/14 14:40:49;;;;;;;;;;;;;;;3.43;100.00;99966.31;4933312;29;19919;-87
2021/11/14 14:43:16;;;;;;;;;;;;;;;3.20;99.81;99977.00;4934987;29;19997;-87
2021/11/14 14:45:49;;;;;;;;;;;;;;;3.20;99.03;99976.16;4935266;29;20282;-87
2021/11/14 14:48:15;;;;;;;;;;;;;;;3.01;98.31;99980.69;4917905;29;19925;-86
2021/11/14 14:50:51;;;;;;;;;;;;;;;3.00;97.70;99984.19;4935107;29;20009;-86
2021/11/14 14:53:24;;;;;;;;;;;;;;;2.78;96.39;99992.22;4918033;29;19926;-87
2021/11/14 14:55:49;;;;;;;;;;;;;;;2.65;95.86;99993.19;4933106;29;19966;-87
2021/11/14 14:58:14;;;;;;;;;;;;;;;2.54;94.59;99996.75;4933806;29;19969;-87
2021/11/14 15:00:41;;;;;;;;;;;;;;;2.49;94.19;99992.41;4954050;28;19973;-87
2021/11/14 15:03:06;;;;;;;;;;;;;;;2.48;93.81;99990.69;4936705;29;20009;-87
2021/11/14 15:05:42;;;;;;;;;;;;;;;2.48;94.22;99991.56;4953798;28;20009;-87
2021/11/14 15:08:08;;;;;;;;;;;;;;;2.33;93.41;99992.53;4954030;28;19919;-87
2021/11/14 15:10:33;;;;;;;;;;;;;;;2.28;92.55;100002.16;4952643;28;19925;-86
2021/11/14 15:13:00;;;;;;;;;;;;;;;2.12;92.17;100004.00;4953036;28;19919;-86
2021/11/14 15:15:26;;;;;;;;;;;;;;;2.00;92.15;99999.66;4936432;28;19953;-87
2021/11/14 15:18:01;;;;;;;;;;;;;;;1.96;91.47;100002.28;4936651;29;20267;-87
2021/11/14 15:20:28;;;;;;;;;;;;;;;1.90;91.33;100007.53;4953762;28;20294;-86
2021/11/14 15:22:56;;;;;;;;;;;;;;;1.73;90.80;100002.41;4953886;28;19918;-87
2021/11/14 15:25:23;;;;;;;;;;;;;;;1.77;90.67;100012.84;4934482;28;19914;-86
2021/11/14 15:27:50;;;;;;;;;;;;;;;1.66;90.44;100018.94;4953788;29;19919;-87
2021/11/14 15:30:17;;;;;;;;;;;;;;;1.54;89.78;100014.63;4953777;28;19922;-87
2021/11/14 15:32:43;;;;;;;;;;;;;;;1.57;90.44;100015.50;4953907;28;19918;-86
2021/11/14 15:35:09;;;;;;;;;;;;;;;1.49;90.12;100011.19;4953489;28;19918;-86
2021/11/14 15:37:34;;;;;;;;;;;;;;;1.38;89.44;100019.03;4936435;29;20477;-86
2021/11/14 15:40:00;;;;;;;;;;;;;;;1.44;89.61;100032.06;4952467;28;19931;-86
2021/11/14 15:42:25;;;;;;;;;;;;;;;1.37;89.32;100023.38;4936368;28;19922;-86
2021/11/14 15:44:51;;;;;;;;;;;;;;;1.57;91.51;100025.09;4952858;28;20421;-86
2021/11/14 15:47:16;;;;;;;;;;;;;;;1.78;93.44;100017.16;4954064;28;19969;-86
2021/11/14 15:49:41;;;;;;;;;;;;;;;2.08;96.66;100017.06;5112382;23;20336;-87
2021/11/14 15:52:07;;;;;;;;;;;;;;;2.36;98.80;100017.78;4966007;28;19919;-87
2021/11/14 15:54:32;;;;;;;;;;;;;;;2.63;100.00;100018.50;4965756;28;19919;-87
2021/11/14 15:56:57;;;;;;;;;;;;;;;2.63;100.00;100032.47;4965643;28;19925;-86
2021/11/14 15:59:23;;;;;;;;;;;;;;;2.78;100.00;100036.72;4967455;28;20410;-86
2021/11/14 16:01:48;;;;;;;;;;;;;;;2.79;100.00;100037.56;4966963;28;20274;-86
2021/11/14 16:04:13;;;;;;;;;;;;;;;2.74;100.00;100042.84;4965350;28;20375;-86
2021/11/14 16:06:39;;;;;;;;;;;;;;;2.76;100.00;100028.03;4967164;28;19924;-86
2021/11/14 16:09:04;;;;;;;;;;;;;;;2.72;100.00;100035.00;4966742;28;20022;-87
2021/11/14 16:11:30;;;;;;;;;;;;;;;2.81;100.00;100041.03;4965426;28;19918;-86
2021/11/14 16:13:55;;;;;;;;;;;;;;;2.73;100.00;100044.59;4966974;28;19922;-86
2021/11/14 16:16:20;;;;;;;;;;;;;;;2.78;100.00;100046.31;4966664;28;20362;-87
2021/11/14 16:18:46;;;;;;;;;;;;;;;2.68;100.00;100040.25;4966480;28;19926;-86
2021/11/14 16:21:16;;;;;;;;;;;;;;;2.76;100.00;100040.22;4966691;28;19922;-86
2021/11/14 16:23:41;;;;;;;;;;;;;;;2.75;100.00;100035.88;4966491;28;19923;-86
2021/11/14 16:26:06;;;;;;;;;;;;;;;2.95;100.00;100054.03;4965160;28;19930;-86
2021/11/14 16:28:31;;;;;;;;;;;;;;;2.92;100.00;100041.88;4966245;28;20365;-86
2021/11/14 16:30:59;;;;;;;;;;;;;;;2.95;100.00;100047.03;4965261;28;19921;-86
2021/11/14 16:33:24;;;;;;;;;;;;;;;2.98;100.00;100044.41;4965157;28;20032;-86
2021/11/14 16:35:50;;;;;;;;;;;;;;;3.03;100.00;100047.88;4966069;28;20388;-86
2021/11/14 16:38:18;;;;;;;;;;;;;;;3.08;100.00;100051.31;4966593;28;19961;-86
2021/11/14 16:40:44;;;;;;;;;;;;;;;3.00;100.00;100053.13;4963534;28;20149;-86
2021/11/14 16:43:10;;;;;;;;;;;;;;;3.02;100.00;100059.22;4965864;28;20421;-86
2021/11/14 16:45:36;;;;;;;;;;;;;;;3.13;100.00;100061.75;4966500;28;20001;-86
2021/11/14 16:48:01;;;;;;;;;;;;;;;3.12;100.00;100064.41;4966100;28;20049;-86
2021/11/14 16:50:27;;;;;;;;;;;;;;;3.11;100.00;100065.25;4964119;28;19981;-87
2021/11/14 16:52:57;;;;;;;;;;;;;;;3.18;100.00;100070.44;4965893;28;20095;-86
2021/11/14 16:55:22;;;;;;;;;;;;;;;3.19;100.00;100081.78;4963113;28;19922;-86
2021/11/14 16:57:48;;;;;;;;;;;;;;;3.17;100.00;100076.56;4966313;28;19928;-86
2021/11/14 17:00:14;;;;;;;;;;;;;;;3.23;100.00;100075.66;4964620;28;19962;-86
2021/11/14 17:02:40;;;;;;;;;;;;;;;3.32;100.00;100064.22;4964625;28;19922;-86
2021/11/14 17:05:06;;;;;;;;;;;;;;;3.31;100.00;100062.50;4965400;28;19925;-86
2021/11/14 17:07:32;;;;;;;;;;;;;;;3.37;100.00;100057.19;4965150;28;19914;-86
2021/11/14 17:09:57;;;;;;;;;;;;;;;3.38;100.00;100067.66;4962696;28;19919;-86
2021/11/14 17:12:22;;;;;;;;;;;;;;;3.38;100.00;100074.63;4964519;28;19917;-86
2021/11/14 17:14:48;;;;;;;;;;;;;;;3.49;100.00;100066.69;4965245;28;19981;-86
2021/11/14 17:17:13;;;;;;;;;;;;;;;3.52;100.00;100069.28;4963620;28;20017;-87
2021/11/14 17:19:38;;;;;;;;;;;;;;;3.55;100.00;100061.38;4964621;28;19940;-86
2021/11/14 17:22:04;;;;;;;;;;;;;;;3.55;100.00;100070.13;4964417;28;19922;-86
2021/11/14 17:24:29;;;;;;;;;;;;;;;3.53;100.00;100074.50;4964847;28;19918;-87
2021/11/14 17:26:56;;;;;;;;;;;;;;;3.63;100.00;100075.28;4963248;28;19925;-86
2021/11/14 17:29:21;;;;;;;;;;;;;;;3.66;99.23;100075.25;4963213;28;19933;-86
2021/11/14 17:31:47;;;;;;;;;;;;;;;3.66;98.24;100079.63;4964398;28;19918;-87
2021/11/14 17:34:13;;;;;;;;;;;;;;;3.75;97.89;100087.38;4964733;28;19929;-86
2021/11/14 17:36:39;;;;;;;;;;;;;;;3.77;96.73;100094.34;4962688;28;20371;-86
2021/11/14 17:39:04;;;;;;;;;;;;;;;3.80;95.90;100099.56;4964081;28;19926;-86
2021/11/14 17:41:29;;;;;;;;;;;;;;;3.80;94.62;100094.31;4963382;28;19926;-86
2021/11/14 17:43:55;;;;;;;;;;;;;;;3.82;93.90;100094.31;4964478;28;20008;-86
2021/11/14 17:46:20;;;;;;;;;;;;;;;3.80;92.97;100101.34;4964019;28;19969;-86
2021/11/14 17:48:47;;;;;;;;;;;;;;;3.81;92.66;100098.69;4963990;28;19929;-86
2021/11/14 17:51:12;;;;;;;;;;;;;;;3.88;92.01;100101.22;4964289;28;20405;-87
2021/11/14 17:53:37;;;;;;;;;;;;;;;3.91;91.40;100095.94;4962666;28;19918;-87
2021/11/14 17:56:04;;;;;;;;;;;;;;;3.89;90.67;100102.97;4962357;28;20349;-86
2021/11/14 17:58:29;;;;;;;;;;;;;;;3.93;90.00;100105.56;4962785;28;19929;-86
2021/11/14 18:00:54;;;;;;;;;;;;;;;3.97;89.83;100103.75;4963386;28;19919;-86
2021/11/14 18:03:20;;;;;;;;;;;;;;;3.97;89.28;100102.03;4963628;28;20013;-86
2021/11/14 18:05:45;;;;;;;;;;;;;;;4.07;89.64;100117.63;4963709;28;19929;-86
2021/11/14 18:08:10;;;;;;;;;;;;;;;4.04;88.82;100117.66;4962289;28;19925;-86
2021/11/14 18:10:36;;;;;;;;;;;;;;;4.00;88.52;100116.84;4961531;28;19921;-86
2021/11/14 18:13:03;;;;;;;;;;;;;;;4.06;88.56;100116.78;4963919;28;19969;-86
2021/11/14 18:15:29;;;;;;;;;;;;;;;4.17;89.11;100114.91;4962052;28;19918;-86
2021/11/14 18:17:54;;;;;;;;;;;;;;;4.17;88.62;100120.16;4963257;28;19932;-86
2021/11/14 18:20:21;;;;;;;;;;;;;;;4.18;88.50;100121.91;4963314;28;19922;-86
2021/11/14 18:22:46;;;;;;;;;;;;;;;4.21;88.37;100122.72;4963278;28;19973;-86
2021/11/14 18:25:14;;;;;;;;;;;;;;;4.24;88.38;100120.94;4961081;28;19965;-86
2021/11/14 18:27:39;;;;;;;;;;;;;;;4.31;88.97;100132.25;4963381;28;19923;-86
2021/11/14 18:30:06;;;;;;;;;;;;;;;4.30;88.34;100126.13;4963422;28;20289;-86
2021/11/14 18:32:31;;;;;;;;;;;;;;;4.32;88.36;100128.72;4963293;28;19925;-86
2021/11/14 18:34:57;;;;;;;;;;;;;;;4.36;88.47;100126.06;4963298;28;19918;-87
2021/11/14 18:37:22;;;;;;;;;;;;;;;4.40;88.62;100123.38;4963389;28;19965;-87
2021/11/14 18:39:48;;;;;;;;;;;;;;;4.36;88.00;100122.56;4961963;28;19929;-86
2021/11/14 18:42:13;;;;;;;;;;;;;;;4.42;88.41;100125.13;4960106;28;19930;-86
2021/11/14 18:44:41;;;;;;;;;;;;;;;4.47;88.48;100127.69;4957758;28;19922;-93
2021/11/14 18:47:08;;;;;;;;;;;;;;;4.48;88.40;100125.06;4961588;28;19926;-90
2021/11/14 18:49:33;;;;;;;;;;;;;;;4.47;87.94;100131.19;4962253;28;20430;-92
2021/11/14 18:51:59;;;;;;;;;;;;;;;4.50;88.18;100133.75;4961698;28;20034;-90
2021/11/14 18:54:24;;;;;;;;;;;;;;;4.57;88.60;100131.06;4960129;28;19922;-92
2021/11/14 18:56:51;;;;;;;;;;;;;;;4.57;88.58;100142.41;4961575;28;20021;-91
2021/11/14 18:59:16;;;;;;;;;;;;;;;4.63;88.79;100144.13;4962395;28;19929;-91
2021/11/14 19:01:42;;;;;;;;;;;;;;;4.61;88.36;100144.13;4963609;28;19922;-91
2021/11/14 19:04:07;;;;;;;;;;;;;;;4.57;88.11;100138.94;4963553;28;19945;-89
2021/11/14 19:06:33;;;;;;;;;;;;;;;4.59;87.90;100148.50;4964005;28;19922;-89
2021/11/14 19:08:58;;;;;;;;;;;;;;;4.60;87.90;100149.41;4963482;28;19921;-91
2021/11/14 19:11:23;;;;;;;;;;;;;;;4.63;88.38;100150.22;4964302;28;20405;-91
2021/11/14 19:13:49;;;;;;;;;;;;;;;4.65;88.23;100150.19;4963827;28;19926;-90
2021/11/14 19:16:17;;;;;;;;;;;;;;;4.63;88.04;100146.75;4961346;28;20404;-91
2021/11/14 19:18:42;;;;;;;;;;;;;;;4.63;87.76;100152.00;4965919;28;20021;-90
2021/11/14 19:21:08;;;;;;;;;;;;;;;4.60;87.88;100154.66;4965115;28;20061;-90
2021/11/14 19:23:33;;;;;;;;;;;;;;;4.65;87.87;100155.44;4966118;28;19926;-90
2021/11/14 19:25:58;;;;;;;;;;;;;;;4.68;88.04;100155.41;4962169;28;19930;-90
2021/11/14 19:28:25;;;;;;;;;;;;;;;4.68;88.11;100152.78;4962439;28;19922;-90
2021/11/14 19:30:51;;;;;;;;;;;;;;;4.70;88.21;100159.75;4963470;28;19977;-92
2021/11/14 19:33:17;;;;;;;;;;;;;;;4.71;88.45;100158.00;4962091;28;19958;-91
2021/11/14 19:35:43;;;;;;;;;;;;;;;4.73;88.61;100156.22;4961329;28;19930;-90
2021/11/14 19:38:09;;;;;;;;;;;;;;;4.76;89.00;100156.19;4963903;28;19918;-91
2021/11/14 19:40:37;;;;;;;;;;;;;;;4.75;88.78;100156.19;4960972;28;20384;-89
2021/11/14 19:43:03;;;;;;;;;;;;;;;4.78;88.96;100157.03;4962695;28;19926;-91
2021/11/14 19:45:28;;;;;;;;;;;;;;;4.83;89.22;100162.22;4959345;28;19929;-90
2021/11/14 19:47:54;;;;;;;;;;;;;;;4.82;89.12;100163.97;4964097;28;20367;-90
2021/11/14 19:50:20;;;;;;;;;;;;;;;4.85;89.30;100165.69;4961030;28;19930;-90
2021/11/14 19:52:46;;;;;;;;;;;;;;;4.82;89.21;100165.72;4962765;28;19927;-91
2021/11/14 19:55:12;;;;;;;;;;;;;;;4.88;89.44;100173.50;4961022;28;19929;-90
2021/11/14 19:57:37;;;;;;;;;;;;;;;4.91;89.53;100178.72;4961510;28;19923;-90
2021/11/14 20:00:05;;;;;;;;;;;;;;;4.91;89.64;100177.00;4958921;28;19961;-86
2021/11/14 20:02:30;;;;;;;;;;;;;;;4.95;89.82;100179.59;4962602;28;19926;-86
2021/11/14 20:04:55;;;;;;;;;;;;;;;4.95;89.82;100176.97;4961599;28;19947;-88
2021/11/14 20:07:23;;;;;;;;;;;;;;;4.96;90.04;100182.16;4960871;28;20290;-87
2021/11/14 20:09:49;;;;;;;;;;;;;;;4.99;90.16;100181.25;4961770;28;19918;-86
2021/11/14 20:12:14;;;;;;;;;;;;;;;5.02;90.17;100183.84;4961401;28;20392;-86
2021/11/14 20:14:44;;;;;;;;;;;;;;;5.03;90.64;100178.56;4961819;28;19923;-86
2021/11/14 20:17:10;;;;;;;;;;;;;;;5.04;90.54;100184.69;4962112;28;19938;-86
2021/11/14 20:19:36;;;;;;;;;;;;;;;5.08;90.54;100189.00;4959869;28;19918;-86
2021/11/14 20:22:02;;;;;;;;;;;;;;;5.12;90.75;100190.69;4953938;28;19918;-86
2021/11/14 20:24:27;;;;;;;;;;;;;;;5.14;90.97;100190.66;4960146;28;19926;-88
2021/11/14 20:26:53;;;;;;;;;;;;;;;5.13;91.14;100191.59;4960416;28;20787;-87
2021/11/14 20:29:18;;;;;;;;;;;;;;;5.19;91.30;100194.13;4960222;28;20286;-86
2021/11/14 20:31:43;;;;;;;;;;;;;;;5.15;91.45;100187.16;4961677;28;19937;-87
2021/11/14 20:34:09;;;;;;;;;;;;;;;5.21;91.70;100182.69;4962476;28;19914;-87
2021/11/14 20:36:34;;;;;;;;;;;;;;;5.20;91.82;100186.22;4964384;28;19931;-88
2021/11/14 20:38:59;;;;;;;;;;;;;;;5.22;92.13;100186.19;4963729;28;19922;-87
2021/11/14 20:41:25;;;;;;;;;;;;;;;5.24;91.95;100184.41;4964172;28;19972;-86
2021/11/14 20:43:50;;;;;;;;;;;;;;;5.24;92.15;100182.63;4966596;28;19953;-87
2021/11/14 20:46:16;;;;;;;;;;;;;;;5.25;92.16;100186.16;4965752;28;19961;-86
2021/11/14 20:48:42;;;;;;;;;;;;;;;5.26;92.30;100174.75;4964097;28;20009;-85
2021/11/14 20:51:08;;;;;;;;;;;;;;;5.28;92.49;100181.72;4962572;28;20400;-86
2021/11/14 20:53:34;;;;;;;;;;;;;;;5.28;92.40;100181.72;4963363;28;19926;-86
2021/11/14 20:55:59;;;;;;;;;;;;;;;5.33;92.74;100184.28;4962567;28;19929;-86
2021/11/14 20:58:24;;;;;;;;;;;;;;;5.35;92.67;100187.75;4963862;28;20016;-87
2021/11/14 21:00:50;;;;;;;;;;;;;;;5.37;92.78;100179.84;4963600;28;20393;-87
2021/11/14 21:03:16;;;;;;;;;;;;;;;5.39;92.97;100178.03;4966086;28;19922;-86
2021/11/14 21:05:41;;;;;;;;;;;;;;;5.38;92.81;100186.84;4965712;28;19982;-86
2021/11/14 21:08:06;;;;;;;;;;;;;;;5.39;93.17;100178.03;4963527;28;20406;-86
2021/11/14 21:10:32;;;;;;;;;;;;;;;5.43;93.11;100182.38;4963384;28;19923;-86
2021/11/14 21:12:57;;;;;;;;;;;;;;;5.45;93.35;100181.44;4963991;28;19926;-86
2021/11/14 21:15:22;;;;;;;;;;;;;;;5.44;93.31;100170.94;4964292;28;19918;-87